Terminal Aerodrome Forecast
Issued by NWS

Home | Current Version | Previous Version | Text Only | Print | Product List | Glossary On
Versions: 1 2 3 4 5 6 7 8 9 10 11 12 13 14
000
FTAK31 PAJN 161729
TAFAJN
TAF
PAJN 161729Z 1618/1718 09006KT 4SM -RA BR SCT003 BKN008 OVC025
     FM162000 11011KT P6SM VCSH FEW008 BKN015 OVC030
     FM170400 10012G20KT P6SM -RA OVC020
     FM171200 12011G17KT 4SM -RA BR OVC020=

USA.gov is the U.S. government's official web portal to all federal, state and local government web resources and services.